Muskegon, Michigan
Current Conditions -  °F | °C
As of 3:55 AM on Thursday 23 Oct 2014 (Local Time) from KMKG Reporting Station
Haze Haze  
Wind Chill: 32°   Ceiling: Unl
Heat Index: 32°   Visibility: 6mi
Dew Point: 28°   Wind: 0mph
Humidity: 85%   Direction: NA
Pressure: 30.27"   Gusts: NA
Location:  43.23°N, 86.24°W
Report Text: KMKG 230755Z AUTO 00000KT 6SM BR CLR 00/M02 A3027 RMK AO2 VIS 2 1/2 RWY 14 SLP255 I1001 T00001022 $
Loading
Personal Weather Stations






























Interactive Weather Map New forecast layout! Learn more

10-Day Weather Forecast

Advertisements
Track Severe Weather on mobile